ETGG

Gluecksburg / Meierwik Airport

Gluecksburg, Germany
METAR ETGG 221820Z 27010KT 9999 SCT050 09/05 Q1027 BLU+
Observed Flight Rules
Oct-22 @ 18:20 UTC (21 minutes ago) Visual Flight Rules
Wind Visibility Clouds
270° at 10 knots 10,000+ meters
  • Scattered at 5,000' AGL
Temperatures Readings
Current 9°C / 48°F
Dewpoint 5°C / 41°F
Humidity 76%
Altimeter 30.32" Hg
Pressure 1027 hPa
Elevation 33
METAR ETGG 221820Z 27010KT 9999 SCT050 09/05 Q1027 BLU+
Observed Flight Rules
Oct-22 @ 18:20 UTC
(21 minutes ago)
VFR
Wind Visibility
270° at 10 knots 10,000+ meters
Clouds
  • Scattered at 5,000' AGL
Temperature Dewpoint
9°C / 48°F 5°C / 41°F
Humidity Altimeter Pressure
76% 30.32" Hg 1027 hPa